Front Runner — 3FRP5 — position and weather

sailwx.info

Track history (hours):
 
Tides and Currents Weather Stations Pressure Air Temp Water Temp Dewpoint Dewpoint Depression Visibility Wind Speed Wind Dir Waves Ship Positions

Front Runner

Last reported at 2015-Feb-11 06:31 UTC. Time now 2015-Feb-28 17:31 UTC.
Position S 35°09' W 057°01'.
Warning: this ship's position is 17 days out of date.

Length 190 m; draft 10.5 m.

Type: Cargo ship. MMSI: 357941000.

Date/timePositionNaut miles runAvg speedWind from/ knotsBaromVisibWave heightAir tempDewpointWater temp
2015-Feb-11 06:31S 35°09' W 057°01'2210.7
2015-Feb-11 04:30S 34°53' W 057°19'4 3.9
2015-Feb-11 03:31S 34°51' W 057°23'1 0.1
2015-Feb-10 19:07S 34°50' W 057°24'5 8.2
2015-Feb-10 18:33S 34°48' W 057°29'1111.6
2015-Feb-10 17:33S 34°44' W 057°42'7 7.5
2015-Feb-10 16:33S 34°43' W 057°51'1111.2
2015-Feb-10 15:33S 34°39' W 058°04'1010.2
2015-Feb-10 14:33S 34°35' W 058°16'  
2015-Feb-04 06:33S 34°11' W 058°12'1110.8
2015-Feb-04 05:33S 34°18' W 058°02'1111.3
2015-Feb-04 04:33S 34°28' W 057°57'1211.8
2015-Feb-04 03:33S 34°40' W 057°58'8 8.5
2015-Feb-04 02:34S 34°45' W 057°50'10 9.5
2015-Feb-04 01:33S 34°45' W 057°39'1312.6
2015-Feb-04 00:33S 34°50' W 057°25'1312.7
2015-Feb-03 23:33S 34°59' W 057°14'1312.8
2015-Feb-03 22:31S 35°09' W 057°02'  
Track history (hours):
 
Tides and Currents Weather Stations Pressure Air Temp Water Temp Dewpoint Dewpoint Depression Visibility Wind Speed Wind Dir Waves Ship Positions

Front Runner

Last reported at 2015-Feb-11 06:31 UTC. Time now 2015-Feb-28 17:31 UTC.
Position S 35°09' W 057°01'.
Warning: this ship's position is 17 days out of date.

Length 190 m; draft 10.5 m.

Type: Cargo ship. MMSI: 357941000.

Date/timePositionNaut miles runAvg speedWind from/ knotsBaromVisibWave heightAir tempDewpointWater temp
2015-Feb-11 06:31S 35°09' W 057°01'2210.7
2015-Feb-11 04:30S 34°53' W 057°19'4 3.9
2015-Feb-11 03:31S 34°51' W 057°23'1 0.1
2015-Feb-10 19:07S 34°50' W 057°24'5 8.2
2015-Feb-10 18:33S 34°48' W 057°29'1111.6
2015-Feb-10 17:33S 34°44' W 057°42'7 7.5
2015-Feb-10 16:33S 34°43' W 057°51'1111.2
2015-Feb-10 15:33S 34°39' W 058°04'1010.2
2015-Feb-10 14:33S 34°35' W 058°16'  
2015-Feb-04 06:33S 34°11' W 058°12'1110.8
2015-Feb-04 05:33S 34°18' W 058°02'1111.3
2015-Feb-04 04:33S 34°28' W 057°57'1211.8
2015-Feb-04 03:33S 34°40' W 057°58'8 8.5
2015-Feb-04 02:34S 34°45' W 057°50'10 9.5
2015-Feb-04 01:33S 34°45' W 057°39'1312.6
2015-Feb-04 00:33S 34°50' W 057°25'1312.7
2015-Feb-03 23:33S 34°59' W 057°14'1312.8
2015-Feb-03 22:31S 35°09' W 057°02'  

Dump ship's entire track history